sensor_id;sensor_type;location;lat;lon;timestamp;P1;durP1;ratioP1;P2;durP2;ratioP2
9264;SDS011;4669;49.594;10.958;2024-02-21T05:25:45;13.25;;;5.40;;
9264;SDS011;4669;49.594;10.958;2024-02-21T05:30:47;13.00;;;5.20;;
9264;SDS011;4669;49.594;10.958;2024-02-21T05:35:49;13.35;;;5.82;;
9264;SDS011;4669;49.594;10.958;2024-02-21T05:40:53;20.83;;;7.95;;
9264;SDS011;4669;49.594;10.958;2024-02-21T05:45:55;11.25;;;6.93;;
9264;SDS011;4669;49.594;10.958;2024-02-21T05:50:57;13.23;;;6.30;;
9264;SDS011;4669;49.594;10.958;2024-02-21T05:56:05;10.65;;;5.13;;
9264;SDS011;4669;49.594;10.958;2024-02-21T06:01:12;10.55;;;5.25;;
9264;SDS011;4669;49.594;10.958;2024-02-21T06:06:14;13.85;;;5.20;;
9264;SDS011;4669;49.594;10.958;2024-02-21T06:11:17;11.70;;;5.03;;
9264;SDS011;4669;49.594;10.958;2024-02-21T06:16:19;9.82;;;4.90;;
9264;SDS011;4669;49.594;10.958;2024-02-21T06:21:21;13.07;;;5.60;;
9264;SDS011;4669;49.594;10.958;2024-02-21T06:26:25;13.02;;;5.40;;
9264;SDS011;4669;49.594;10.958;2024-02-21T06:31:27;10.80;;;5.00;;
9264;SDS011;4669;49.594;10.958;2024-02-21T06:36:31;9.95;;;4.25;;
9264;SDS011;4669;49.594;10.958;2024-02-21T06:41:35;14.07;;;5.10;;
9264;SDS011;4669;49.594;10.958;2024-02-21T06:46:37;15.98;;;5.13;;
9264;SDS011;4669;49.594;10.958;2024-02-21T06:51:39;13.07;;;5.13;;
9264;SDS011;4669;49.594;10.958;2024-02-21T06:56:42;11.77;;;4.90;;
9264;SDS011;4669;49.594;10.958;2024-02-21T07:01:45;13.88;;;4.88;;
9264;SDS011;4669;49.594;10.958;2024-02-21T07:06:47;14.63;;;5.68;;
9264;SDS011;4669;49.594;10.958;2024-02-21T07:11:51;15.00;;;5.80;;
9264;SDS011;4669;49.594;10.958;2024-02-21T07:16:53;18.35;;;5.40;;
9264;SDS011;4669;49.594;10.958;2024-02-21T07:21:57;8.57;;;4.53;;
9264;SDS011;4669;49.594;10.958;2024-02-21T07:27:00;15.02;;;5.05;;
9264;SDS011;4669;49.594;10.958;2024-02-21T07:32:04;9.70;;;4.75;;
9264;SDS011;4669;49.594;10.958;2024-02-21T07:37:07;11.45;;;5.75;;
9264;SDS011;4669;49.594;10.958;2024-02-21T07:42:10;9.98;;;4.60;;
9264;SDS011;4669;49.594;10.958;2024-02-21T07:47:12;11.30;;;4.85;;
9264;SDS011;4669;49.594;10.958;2024-02-21T07:52:14;16.83;;;5.72;;
9264;SDS011;4669;49.594;10.958;2024-02-21T07:57:18;12.48;;;5.00;;
9264;SDS011;4669;49.594;10.958;2024-02-21T08:02:20;14.80;;;5.13;;
9264;SDS011;4669;49.594;10.958;2024-02-21T08:07:22;12.00;;;5.00;;
9264;SDS011;4669;49.594;10.958;2024-02-21T08:12:25;11.65;;;4.40;;
9264;SDS011;4669;49.594;10.958;2024-02-21T08:17:27;13.68;;;4.90;;
9264;SDS011;4669;49.594;10.958;2024-02-21T08:22:29;9.85;;;4.70;;
9264;SDS011;4669;49.594;10.958;2024-02-21T08:27:32;14.43;;;5.40;;
9264;SDS011;4669;49.594;10.958;2024-02-21T08:32:34;10.02;;;3.95;;
9264;SDS011;4669;49.594;10.958;2024-02-21T08:37:37;10.38;;;4.53;;
9264;SDS011;4669;49.594;10.958;2024-02-21T08:42:40;12.07;;;3.90;;
9264;SDS011;4669;49.594;10.958;2024-02-21T08:47:42;8.75;;;3.65;;
9264;SDS011;4669;49.594;10.958;2024-02-21T08:52:45;11.70;;;2.75;;
9264;SDS011;4669;49.594;10.958;2024-02-21T08:57:48;8.88;;;2.97;;
9264;SDS011;4669;49.594;10.958;2024-02-21T09:02:50;7.95;;;2.58;;
9264;SDS011;4669;49.594;10.958;2024-02-21T09:07:52;10.40;;;3.67;;
9264;SDS011;4669;49.594;10.958;2024-02-21T09:12:55;10.73;;;2.92;;
9264;SDS011;4669;49.594;10.958;2024-02-21T09:17:57;10.23;;;3.35;;
9264;SDS011;4669;49.594;10.958;2024-02-21T09:22:59;11.52;;;2.92;;
9264;SDS011;4669;49.594;10.958;2024-02-21T09:28:03;11.15;;;2.65;;
9264;SDS011;4669;49.594;10.958;2024-02-21T09:33:06;9.35;;;2.72;;
9264;SDS011;4669;49.594;10.958;2024-02-21T09:38:08;10.93;;;2.90;;
9264;SDS011;4669;49.594;10.958;2024-02-21T09:43:11;8.93;;;3.13;;
9264;SDS011;4669;49.594;10.958;2024-02-21T09:48:26;10.77;;;3.55;;
9264;SDS011;4669;49.594;10.958;2024-02-21T09:53:40;10.48;;;3.30;;
9264;SDS011;4669;49.594;10.958;2024-02-21T09:58:46;7.53;;;2.70;;
9264;SDS011;4669;49.594;10.958;2024-02-21T10:03:48;16.08;;;7.78;;
9264;SDS011;4669;49.594;10.958;2024-02-21T10:08:53;7.95;;;3.50;;
9264;SDS011;4669;49.594;10.958;2024-02-21T10:14:04;11.27;;;3.63;;
9264;SDS011;4669;49.594;10.958;2024-02-21T10:19:07;11.48;;;3.28;;
9264;SDS011;4669;49.594;10.958;2024-02-21T10:24:25;12.02;;;2.65;;
9264;SDS011;4669;49.594;10.958;2024-02-21T10:29:29;5.68;;;2.63;;
9264;SDS011;4669;49.594;10.958;2024-02-21T10:34:31;5.97;;;2.45;;
9264;SDS011;4669;49.594;10.958;2024-02-21T10:39:34;10.10;;;2.92;;
9264;SDS011;4669;49.594;10.958;2024-02-21T10:44:41;10.48;;;3.17;;
9264;SDS011;4669;49.594;10.958;2024-02-21T10:49:44;8.65;;;2.92;;
9264;SDS011;4669;49.594;10.958;2024-02-21T10:54:50;8.82;;;2.42;;
9264;SDS011;4669;49.594;10.958;2024-02-21T10:59:58;10.35;;;3.03;;
9264;SDS011;4669;49.594;10.958;2024-02-21T11:05:03;6.10;;;2.67;;
9264;SDS011;4669;49.594;10.958;2024-02-21T11:10:19;7.80;;;3.95;;
9264;SDS011;4669;49.594;10.958;2024-02-21T11:15:26;5.65;;;2.22;;
9264;SDS011;4669;49.594;10.958;2024-02-21T11:20:31;8.68;;;2.40;;
9264;SDS011;4669;49.594;10.958;2024-02-21T11:25:34;6.68;;;2.72;;
9264;SDS011;4669;49.594;10.958;2024-02-21T11:30:38;6.22;;;2.20;;
9264;SDS011;4669;49.594;10.958;2024-02-21T11:35:43;9.82;;;2.80;;
9264;SDS011;4669;49.594;10.958;2024-02-21T11:40:46;6.75;;;2.83;;
9264;SDS011;4669;49.594;10.958;2024-02-21T11:45:49;9.10;;;2.83;;
9264;SDS011;4669;49.594;10.958;2024-02-21T11:50:55;5.95;;;2.38;;
9264;SDS011;4669;49.594;10.958;2024-02-21T11:55:57;6.30;;;2.13;;
9264;SDS011;4669;49.594;10.958;2024-02-21T12:01:00;7.07;;;2.50;;
9264;SDS011;4669;49.594;10.958;2024-02-21T12:06:05;5.18;;;1.90;;
9264;SDS011;4669;49.594;10.958;2024-02-21T12:11:15;8.25;;;2.67;;
9264;SDS011;4669;49.594;10.958;2024-02-21T12:16:22;6.75;;;2.33;;
9264;SDS011;4669;49.594;10.958;2024-02-21T12:21:24;8.02;;;2.60;;
9264;SDS011;4669;49.594;10.958;2024-02-21T12:26:28;9.95;;;2.63;;
9264;SDS011;4669;49.594;10.958;2024-02-21T12:31:32;6.65;;;2.30;;
9264;SDS011;4669;49.594;10.958;2024-02-21T12:36:35;11.13;;;2.47;;
9264;SDS011;4669;49.594;10.958;2024-02-21T12:41:43;5.28;;;2.30;;
9264;SDS011;4669;49.594;10.958;2024-02-21T12:46:46;5.38;;;2.00;;
9264;SDS011;4669;49.594;10.958;2024-02-21T12:51:52;11.35;;;2.42;;
9264;SDS011;4669;49.594;10.958;2024-02-21T12:56:54;5.55;;;2.30;;
9264;SDS011;4669;49.594;10.958;2024-02-21T13:01:57;6.40;;;2.28;;
9264;SDS011;4669;49.594;10.958;2024-02-21T13:06:59;10.23;;;2.13;;
9264;SDS011;4669;49.594;10.958;2024-02-21T13:12:01;7.50;;;2.40;;
9264;SDS011;4669;49.594;10.958;2024-02-21T13:17:05;7.28;;;2.10;;
9264;SDS011;4669;49.594;10.958;2024-02-21T13:22:07;7.20;;;2.42;;
9264;SDS011;4669;49.594;10.958;2024-02-21T13:27:09;6.00;;;2.33;;
9264;SDS011;4669;49.594;10.958;2024-02-21T13:32:14;6.32;;;2.05;;
9264;SDS011;4669;49.594;10.958;2024-02-21T13:37:17;6.15;;;2.03;;
9264;SDS011;4669;49.594;10.958;2024-02-21T13:42:19;5.22;;;2.10;;
9264;SDS011;4669;49.594;10.958;2024-02-21T13:47:22;7.13;;;2.35;;
9264;SDS011;4669;49.594;10.958;2024-02-21T13:52:24;5.78;;;2.30;;
9264;SDS011;4669;49.594;10.958;2024-02-21T13:57:27;6.35;;;2.38;;
9264;SDS011;4669;49.594;10.958;2024-02-21T14:02:30;6.80;;;2.40;;
9264;SDS011;4669;49.594;10.958;2024-02-21T14:07:32;4.90;;;1.95;;
9264;SDS011;4669;49.594;10.958;2024-02-21T14:12:34;7.18;;;2.08;;
9264;SDS011;4669;49.594;10.958;2024-02-21T14:17:38;4.85;;;1.75;;
9264;SDS011;4669;49.594;10.958;2024-02-21T14:22:40;4.30;;;1.67;;
9264;SDS011;4669;49.594;10.958;2024-02-21T14:27:42;2.97;;;1.73;;
9264;SDS011;4669;49.594;10.958;2024-02-21T14:32:46;2.70;;;1.65;;
9264;SDS011;4669;49.594;10.958;2024-02-21T14:37:48;5.43;;;1.65;;
9264;SDS011;4669;49.594;10.958;2024-02-21T14:42:50;3.40;;;1.38;;
9264;SDS011;4669;49.594;10.958;2024-02-21T14:47:54;5.85;;;1.80;;
9264;SDS011;4669;49.594;10.958;2024-02-21T14:52:56;4.47;;;2.00;;
9264;SDS011;4669;49.594;10.958;2024-02-21T14:57:59;3.90;;;1.58;;
9264;SDS011;4669;49.594;10.958;2024-02-21T15:03:03;3.60;;;1.50;;
9264;SDS011;4669;49.594;10.958;2024-02-21T15:08:05;3.70;;;1.42;;
9264;SDS011;4669;49.594;10.958;2024-02-21T15:13:10;5.03;;;1.50;;
9264;SDS011;4669;49.594;10.958;2024-02-21T15:18:13;6.47;;;1.77;;
9264;SDS011;4669;49.594;10.958;2024-02-21T15:23:16;2.90;;;1.38;;
9264;SDS011;4669;49.594;10.958;2024-02-21T15:28:18;4.25;;;1.40;;
9264;SDS011;4669;49.594;10.958;2024-02-21T15:33:21;5.18;;;1.83;;
9264;SDS011;4669;49.594;10.958;2024-02-21T15:38:23;5.30;;;2.53;;
9264;SDS011;4669;49.594;10.958;2024-02-21T15:43:25;4.95;;;1.90;;
9264;SDS011;4669;49.594;10.958;2024-02-21T15:48:28;3.67;;;1.77;;
9264;SDS011;4669;49.594;10.958;2024-02-21T15:53:30;4.20;;;1.88;;
9264;SDS011;4669;49.594;10.958;2024-02-21T15:58:32;5.45;;;1.70;;
9264;SDS011;4669;49.594;10.958;2024-02-21T16:03:36;4.80;;;1.90;;
9264;SDS011;4669;49.594;10.958;2024-02-21T16:08:38;2.85;;;1.50;;
9264;SDS011;4669;49.594;10.958;2024-02-21T16:13:41;5.07;;;1.75;;
9264;SDS011;4669;49.594;10.958;2024-02-21T16:18:44;5.95;;;2.70;;
9264;SDS011;4669;49.594;10.958;2024-02-21T16:23:47;6.60;;;1.90;;
9264;SDS011;4669;49.594;10.958;2024-02-21T16:28:49;3.08;;;1.85;;
9264;SDS011;4669;49.594;10.958;2024-02-21T16:33:52;5.47;;;2.42;;
9264;SDS011;4669;49.594;10.958;2024-02-21T16:38:54;8.32;;;3.30;;
9264;SDS011;4669;49.594;10.958;2024-02-21T16:43:57;10.82;;;4.20;;
9264;SDS011;4669;49.594;10.958;2024-02-21T16:49:00;9.20;;;4.20;;
9264;SDS011;4669;49.594;10.958;2024-02-21T16:54:02;8.18;;;3.75;;
9264;SDS011;4669;49.594;10.958;2024-02-21T16:59:08;16.88;;;7.57;;
9264;SDS011;4669;49.594;10.958;2024-02-21T17:04:12;7.63;;;4.90;;
9264;SDS011;4669;49.594;10.958;2024-02-21T17:09:16;7.35;;;4.28;;
9264;SDS011;4669;49.594;10.958;2024-02-21T17:14:18;7.35;;;3.67;;
9264;SDS011;4669;49.594;10.958;2024-02-21T17:19:21;5.85;;;3.03;;
9264;SDS011;4669;49.594;10.958;2024-02-21T17:24:23;9.88;;;3.13;;
9264;SDS011;4669;49.594;10.958;2024-02-21T17:29:26;8.77;;;2.90;;
9264;SDS011;4669;49.594;10.958;2024-02-21T17:34:30;7.10;;;3.30;;
9264;SDS011;4669;49.594;10.958;2024-02-21T17:39:33;6.45;;;3.92;;
9264;SDS011;4669;49.594;10.958;2024-02-21T17:44:35;8.10;;;3.38;;
9264;SDS011;4669;49.594;10.958;2024-02-21T17:49:40;13.63;;;5.07;;
9264;SDS011;4669;49.594;10.958;2024-02-21T17:54:44;8.10;;;4.00;;
9264;SDS011;4669;49.594;10.958;2024-02-21T17:59:47;7.15;;;3.70;;
9264;SDS011;4669;49.594;10.958;2024-02-21T18:04:50;5.78;;;3.80;;
9264;SDS011;4669;49.594;10.958;2024-02-21T18:09:53;4.85;;;4.18;;
9264;SDS011;4669;49.594;10.958;2024-02-21T18:14:55;10.48;;;5.38;;
9264;SDS011;4669;49.594;10.958;2024-02-21T18:19:58;11.25;;;4.82;;
9264;SDS011;4669;49.594;10.958;2024-02-21T18:25:03;9.27;;;5.25;;
9264;SDS011;4669;49.594;10.958;2024-02-21T18:30:09;11.90;;;6.10;;
9264;SDS011;4669;49.594;10.958;2024-02-21T18:35:12;8.25;;;3.80;;
9264;SDS011;4669;49.594;10.958;2024-02-21T18:40:15;14.45;;;6.25;;
9264;SDS011;4669;49.594;10.958;2024-02-21T18:45:17;16.35;;;9.77;;
9264;SDS011;4669;49.594;10.958;2024-02-21T18:50:21;13.73;;;7.65;;
9264;SDS011;4669;49.594;10.958;2024-02-21T18:55:23;12.05;;;6.25;;
9264;SDS011;4669;49.594;10.958;2024-02-21T19:00:25;9.43;;;4.20;;
9264;SDS011;4669;49.594;10.958;2024-02-21T19:05:28;5.45;;;4.00;;
9264;SDS011;4669;49.594;10.958;2024-02-21T19:10:30;9.20;;;4.55;;
9264;SDS011;4669;49.594;10.958;2024-02-21T19:15:32;7.88;;;3.88;;
9264;SDS011;4669;49.594;10.958;2024-02-21T19:20:36;7.75;;;3.80;;
9264;SDS011;4669;49.594;10.958;2024-02-21T19:25:38;5.78;;;3.25;;
9264;SDS011;4669;49.594;10.958;2024-02-21T19:30:44;7.40;;;3.53;;
9264;SDS011;4669;49.594;10.958;2024-02-21T19:35:48;8.05;;;3.80;;
9264;SDS011;4669;49.594;10.958;2024-02-21T19:40:51;7.03;;;3.40;;
9264;SDS011;4669;49.594;10.958;2024-02-21T19:45:53;9.68;;;5.82;;
9264;SDS011;4669;49.594;10.958;2024-02-21T19:50:57;7.68;;;4.53;;
9264;SDS011;4669;49.594;10.958;2024-02-21T19:56:00;6.82;;;3.90;;
9264;SDS011;4669;49.594;10.958;2024-02-21T20:01:02;4.72;;;3.42;;
9264;SDS011;4669;49.594;10.958;2024-02-21T20:06:07;6.90;;;3.63;;
9264;SDS011;4669;49.594;10.958;2024-02-21T20:11:09;6.63;;;3.03;;
9264;SDS011;4669;49.594;10.958;2024-02-21T20:16:11;5.68;;;3.47;;
9264;SDS011;4669;49.594;10.958;2024-02-21T20:21:15;3.55;;;2.45;;
9264;SDS011;4669;49.594;10.958;2024-02-21T20:26:17;4.72;;;3.30;;
9264;SDS011;4669;49.594;10.958;2024-02-21T20:31:19;6.20;;;3.90;;
9264;SDS011;4669;49.594;10.958;2024-02-21T20:36:23;6.32;;;3.17;;
9264;SDS011;4669;49.594;10.958;2024-02-21T20:41:25;4.30;;;3.10;;
9264;SDS011;4669;49.594;10.958;2024-02-21T20:46:27;5.82;;;2.55;;
9264;SDS011;4669;49.594;10.958;2024-02-21T20:51:31;4.93;;;2.88;;
9264;SDS011;4669;49.594;10.958;2024-02-21T20:56:33;5.20;;;3.22;;
9264;SDS011;4669;49.594;10.958;2024-02-21T21:01:36;4.57;;;3.20;;
9264;SDS011;4669;49.594;10.958;2024-02-21T21:06:39;5.55;;;3.00;;
9264;SDS011;4669;49.594;10.958;2024-02-21T21:11:42;4.28;;;3.20;;
9264;SDS011;4669;49.594;10.958;2024-02-21T21:16:46;4.30;;;2.80;;
9264;SDS011;4669;49.594;10.958;2024-02-21T21:21:49;4.45;;;2.80;;
9264;SDS011;4669;49.594;10.958;2024-02-21T21:26:51;7.80;;;3.85;;
9264;SDS011;4669;49.594;10.958;2024-02-21T21:31:53;4.68;;;2.67;;
9264;SDS011;4669;49.594;10.958;2024-02-21T21:36:57;5.43;;;2.80;;
9264;SDS011;4669;49.594;10.958;2024-02-21T21:42:00;3.63;;;2.60;;
9264;SDS011;4669;49.594;10.958;2024-02-21T21:47:03;3.00;;;2.17;;
9264;SDS011;4669;49.594;10.958;2024-02-21T21:52:07;4.43;;;2.45;;
9264;SDS011;4669;49.594;10.958;2024-02-21T21:57:09;5.47;;;3.20;;
9264;SDS011;4669;49.594;10.958;2024-02-21T22:02:11;4.78;;;2.65;;
9264;SDS011;4669;49.594;10.958;2024-02-21T22:07:15;5.07;;;3.38;;
9264;SDS011;4669;49.594;10.958;2024-02-21T22:12:17;4.20;;;2.83;;
9264;SDS011;4669;49.594;10.958;2024-02-21T22:17:19;4.30;;;2.42;;
9264;SDS011;4669;49.594;10.958;2024-02-21T22:22:22;4.55;;;2.75;;
9264;SDS011;4669;49.594;10.958;2024-02-21T22:27:24;5.90;;;2.53;;
9264;SDS011;4669;49.594;10.958;2024-02-21T22:32:27;4.65;;;3.13;;
9264;SDS011;4669;49.594;10.958;2024-02-21T22:37:31;4.20;;;2.70;;
9264;SDS011;4669;49.594;10.958;2024-02-21T22:42:33;3.60;;;2.60;;
9264;SDS011;4669;49.594;10.958;2024-02-21T22:47:35;5.40;;;2.90;;
9264;SDS011;4669;49.594;10.958;2024-02-21T22:52:38;5.38;;;3.40;;
9264;SDS011;4669;49.594;10.958;2024-02-21T22:57:40;4.97;;;2.92;;
